sensor_id;sensor_type;location;lat;lon;timestamp;temperature;humidity
16485;DHT22;8353;47.856;12.344;2023-02-28T00:01:23;0.90;99.90
16485;DHT22;8353;47.856;12.344;2023-02-28T00:03:54;0.80;99.90
16485;DHT22;8353;47.856;12.344;2023-02-28T00:06:25;0.90;99.90
16485;DHT22;8353;47.856;12.344;2023-02-28T00:08:56;1.00;99.90
16485;DHT22;8353;47.856;12.344;2023-02-28T00:11:26;0.90;99.90
16485;DHT22;8353;47.856;12.344;2023-02-28T00:13:57;0.90;99.90
16485;DHT22;8353;47.856;12.344;2023-02-28T00:16:30;0.90;99.90
16485;DHT22;8353;47.856;12.344;2023-02-28T00:19:00;1.00;99.90
16485;DHT22;8353;47.856;12.344;2023-02-28T00:21:31;1.00;99.90
16485;DHT22;8353;47.856;12.344;2023-02-28T00:24:02;0.90;99.90
16485;DHT22;8353;47.856;12.344;2023-02-28T00:26:33;0.80;99.90
16485;DHT22;8353;47.856;12.344;2023-02-28T00:29:04;0.90;99.90
16485;DHT22;8353;47.856;12.344;2023-02-28T00:31:35;0.90;99.90
16485;DHT22;8353;47.856;12.344;2023-02-28T00:34:06;1.00;99.90
16485;DHT22;8353;47.856;12.344;2023-02-28T00:36:36;1.10;99.90
16485;DHT22;8353;47.856;12.344;2023-02-28T00:39:07;1.00;99.90
16485;DHT22;8353;47.856;12.344;2023-02-28T00:41:37;1.00;99.90
16485;DHT22;8353;47.856;12.344;2023-02-28T00:44:08;0.90;99.90
16485;DHT22;8353;47.856;12.344;2023-02-28T00:46:40;0.90;99.90
16485;DHT22;8353;47.856;12.344;2023-02-28T00:49:10;0.90;99.90
16485;DHT22;8353;47.856;12.344;2023-02-28T00:51:40;0.80;99.90
16485;DHT22;8353;47.856;12.344;2023-02-28T00:54:11;0.80;99.90
16485;DHT22;8353;47.856;12.344;2023-02-28T00:56:41;0.90;99.90
16485;DHT22;8353;47.856;12.344;2023-02-28T00:59:13;0.90;99.90
16485;DHT22;8353;47.856;12.344;2023-02-28T01:01:46;0.80;99.90
16485;DHT22;8353;47.856;12.344;2023-02-28T01:04:16;0.70;99.90
16485;DHT22;8353;47.856;12.344;2023-02-28T01:06:47;1.00;99.90
16485;DHT22;8353;47.856;12.344;2023-02-28T01:09:18;1.10;99.90
16485;DHT22;8353;47.856;12.344;2023-02-28T01:11:48;0.90;99.90
16485;DHT22;8353;47.856;12.344;2023-02-28T01:14:19;0.70;99.90
16485;DHT22;8353;47.856;12.344;2023-02-28T01:16:50;0.70;99.90
16485;DHT22;8353;47.856;12.344;2023-02-28T01:19:22;0.70;99.90
16485;DHT22;8353;47.856;12.344;2023-02-28T01:21:52;0.60;99.90
16485;DHT22;8353;47.856;12.344;2023-02-28T01:24:23;0.70;99.90
16485;DHT22;8353;47.856;12.344;2023-02-28T01:26:54;0.70;99.90
16485;DHT22;8353;47.856;12.344;2023-02-28T01:32:00;0.90;99.90
16485;DHT22;8353;47.856;12.344;2023-02-28T01:34:30;1.10;99.90
16485;DHT22;8353;47.856;12.344;2023-02-28T01:37:00;1.30;99.90
16485;DHT22;8353;47.856;12.344;2023-02-28T01:39:32;1.40;99.90
16485;DHT22;8353;47.856;12.344;2023-02-28T01:42:03;1.30;99.90
16485;DHT22;8353;47.856;12.344;2023-02-28T01:44:55;1.40;99.90
16485;DHT22;8353;47.856;12.344;2023-02-28T01:47:30;1.40;99.90
16485;DHT22;8353;47.856;12.344;2023-02-28T01:50:06;1.50;99.90
16485;DHT22;8353;47.856;12.344;2023-02-28T01:52:37;1.60;99.90
16485;DHT22;8353;47.856;12.344;2023-02-28T01:55:08;1.60;99.90
16485;DHT22;8353;47.856;12.344;2023-02-28T01:57:44;1.60;99.90
16485;DHT22;8353;47.856;12.344;2023-02-28T02:00:18;1.40;99.90
16485;DHT22;8353;47.856;12.344;2023-02-28T02:02:56;1.10;99.90
16485;DHT22;8353;47.856;12.344;2023-02-28T02:05:29;1.00;99.90
16485;DHT22;8353;47.856;12.344;2023-02-28T02:08:03;1.00;99.90
16485;DHT22;8353;47.856;12.344;2023-02-28T02:10:38;0.90;99.90
16485;DHT22;8353;47.856;12.344;2023-02-28T02:13:29;0.90;99.90
16485;DHT22;8353;47.856;12.344;2023-02-28T02:16:11;1.10;99.90
16485;DHT22;8353;47.856;12.344;2023-02-28T02:18:47;1.20;99.90
16485;DHT22;8353;47.856;12.344;2023-02-28T02:24:40;1.20;99.90
16485;DHT22;8353;47.856;12.344;2023-02-28T02:27:22;1.10;99.90
16485;DHT22;8353;47.856;12.344;2023-02-28T02:33:23;1.00;99.90
16485;DHT22;8353;47.856;12.344;2023-02-28T02:36:00;1.10;99.90
16485;DHT22;8353;47.856;12.344;2023-02-28T02:38:33;1.00;99.90
16485;DHT22;8353;47.856;12.344;2023-02-28T02:41:12;0.90;99.90
16485;DHT22;8353;47.856;12.344;2023-02-28T02:43:47;1.00;99.90
16485;DHT22;8353;47.856;12.344;2023-02-28T02:46:21;1.00;99.90
16485;DHT22;8353;47.856;12.344;2023-02-28T02:48:56;1.20;99.90
16485;DHT22;8353;47.856;12.344;2023-02-28T02:51:32;1.40;99.90
16485;DHT22;8353;47.856;12.344;2023-02-28T02:54:08;1.40;99.90
16485;DHT22;8353;47.856;12.344;2023-02-28T02:56:39;1.40;99.90
16485;DHT22;8353;47.856;12.344;2023-02-28T02:59:12;1.40;99.90
16485;DHT22;8353;47.856;12.344;2023-02-28T03:01:43;1.30;99.90
16485;DHT22;8353;47.856;12.344;2023-02-28T03:04:16;1.30;99.90
16485;DHT22;8353;47.856;12.344;2023-02-28T03:06:50;1.50;99.90
16485;DHT22;8353;47.856;12.344;2023-02-28T03:09:25;1.40;99.90
16485;DHT22;8353;47.856;12.344;2023-02-28T03:11:56;1.40;99.90
16485;DHT22;8353;47.856;12.344;2023-02-28T03:14:37;1.30;99.90
16485;DHT22;8353;47.856;12.344;2023-02-28T03:17:24;1.20;99.90
16485;DHT22;8353;47.856;12.344;2023-02-28T03:20:08;1.30;99.90
16485;DHT22;8353;47.856;12.344;2023-02-28T03:22:52;1.40;99.90
16485;DHT22;8353;47.856;12.344;2023-02-28T03:25:31;1.40;99.90
16485;DHT22;8353;47.856;12.344;2023-02-28T03:28:08;1.30;99.90
16485;DHT22;8353;47.856;12.344;2023-02-28T03:30:46;1.40;99.90
16485;DHT22;8353;47.856;12.344;2023-02-28T03:33:23;1.40;99.90
16485;DHT22;8353;47.856;12.344;2023-02-28T03:35:57;1.40;99.90
16485;DHT22;8353;47.856;12.344;2023-02-28T03:38:34;1.50;99.90
16485;DHT22;8353;47.856;12.344;2023-02-28T03:41:12;1.50;99.90
16485;DHT22;8353;47.856;12.344;2023-02-28T03:43:48;1.50;99.90
16485;DHT22;8353;47.856;12.344;2023-02-28T03:46:22;1.40;99.90
16485;DHT22;8353;47.856;12.344;2023-02-28T03:48:56;1.40;99.90
16485;DHT22;8353;47.856;12.344;2023-02-28T03:51:28;1.40;99.90
16485;DHT22;8353;47.856;12.344;2023-02-28T03:54:05;1.40;99.90
16485;DHT22;8353;47.856;12.344;2023-02-28T03:56:39;1.40;99.90
16485;DHT22;8353;47.856;12.344;2023-02-28T03:59:14;1.40;99.90
16485;DHT22;8353;47.856;12.344;2023-02-28T04:01:48;1.50;99.90
16485;DHT22;8353;47.856;12.344;2023-02-28T04:04:18;1.40;99.90
16485;DHT22;8353;47.856;12.344;2023-02-28T04:06:50;1.40;99.90
16485;DHT22;8353;47.856;12.344;2023-02-28T04:09:22;1.40;99.90
16485;DHT22;8353;47.856;12.344;2023-02-28T04:11:53;1.40;99.90
16485;DHT22;8353;47.856;12.344;2023-02-28T04:14:25;1.40;99.90
16485;DHT22;8353;47.856;12.344;2023-02-28T04:16:55;1.40;99.90
16485;DHT22;8353;47.856;12.344;2023-02-28T04:19:26;1.30;99.90
16485;DHT22;8353;47.856;12.344;2023-02-28T04:21:57;1.30;99.90
16485;DHT22;8353;47.856;12.344;2023-02-28T04:24:28;1.30;99.90
16485;DHT22;8353;47.856;12.344;2023-02-28T04:26:59;1.30;99.90
16485;DHT22;8353;47.856;12.344;2023-02-28T04:29:31;1.20;99.90
16485;DHT22;8353;47.856;12.344;2023-02-28T04:32:02;1.30;99.90
16485;DHT22;8353;47.856;12.344;2023-02-28T04:34:33;1.30;99.90
16485;DHT22;8353;47.856;12.344;2023-02-28T04:37:03;1.30;99.90
16485;DHT22;8353;47.856;12.344;2023-02-28T04:39:36;1.30;99.90
16485;DHT22;8353;47.856;12.344;2023-02-28T04:42:06;1.30;99.90
16485;DHT22;8353;47.856;12.344;2023-02-28T04:44:37;1.20;99.90
16485;DHT22;8353;47.856;12.344;2023-02-28T04:47:08;1.30;99.90
16485;DHT22;8353;47.856;12.344;2023-02-28T04:49:38;1.40;99.90
16485;DHT22;8353;47.856;12.344;2023-02-28T04:52:10;1.30;99.90
16485;DHT22;8353;47.856;12.344;2023-02-28T04:54:42;1.40;99.90
16485;DHT22;8353;47.856;12.344;2023-02-28T04:57:12;1.40;99.90
16485;DHT22;8353;47.856;12.344;2023-02-28T04:59:43;1.40;99.90
16485;DHT22;8353;47.856;12.344;2023-02-28T05:02:14;1.40;99.90
16485;DHT22;8353;47.856;12.344;2023-02-28T05:04:44;1.40;99.90
16485;DHT22;8353;47.856;12.344;2023-02-28T05:07:15;1.40;99.90
16485;DHT22;8353;47.856;12.344;2023-02-28T05:09:46;1.40;99.90
16485;DHT22;8353;47.856;12.344;2023-02-28T05:12:17;1.40;99.90
16485;DHT22;8353;47.856;12.344;2023-02-28T05:14:47;1.40;99.90
16485;DHT22;8353;47.856;12.344;2023-02-28T05:17:18;1.30;99.90
16485;DHT22;8353;47.856;12.344;2023-02-28T05:19:49;1.30;99.90
16485;DHT22;8353;47.856;12.344;2023-02-28T05:22:21;1.30;99.90
16485;DHT22;8353;47.856;12.344;2023-02-28T05:24:53;1.30;99.90
16485;DHT22;8353;47.856;12.344;2023-02-28T05:27:24;1.20;99.90
16485;DHT22;8353;47.856;12.344;2023-02-28T05:29:54;1.30;99.90
16485;DHT22;8353;47.856;12.344;2023-02-28T05:32:25;1.20;99.90
16485;DHT22;8353;47.856;12.344;2023-02-28T05:34:55;1.10;99.90
16485;DHT22;8353;47.856;12.344;2023-02-28T05:37:25;1.10;99.90
16485;DHT22;8353;47.856;12.344;2023-02-28T05:39:57;1.20;99.90
16485;DHT22;8353;47.856;12.344;2023-02-28T05:42:28;1.20;99.90
16485;DHT22;8353;47.856;12.344;2023-02-28T05:44:58;1.10;99.90
16485;DHT22;8353;47.856;12.344;2023-02-28T05:47:29;1.10;99.90
16485;DHT22;8353;47.856;12.344;2023-02-28T05:49:59;1.10;99.90
16485;DHT22;8353;47.856;12.344;2023-02-28T05:52:30;0.80;99.90
16485;DHT22;8353;47.856;12.344;2023-02-28T05:55:02;0.80;99.90
16485;DHT22;8353;47.856;12.344;2023-02-28T05:57:33;0.90;99.90
16485;DHT22;8353;47.856;12.344;2023-02-28T06:00:05;1.00;99.90
16485;DHT22;8353;47.856;12.344;2023-02-28T06:02:38;1.00;99.90
16485;DHT22;8353;47.856;12.344;2023-02-28T06:05:13;0.90;99.90
16485;DHT22;8353;47.856;12.344;2023-02-28T06:07:44;0.90;99.90
16485;DHT22;8353;47.856;12.344;2023-02-28T06:10:17;1.00;99.90
16485;DHT22;8353;47.856;12.344;2023-02-28T06:12:47;1.10;99.90
16485;DHT22;8353;47.856;12.344;2023-02-28T06:15:18;1.10;99.90
16485;DHT22;8353;47.856;12.344;2023-02-28T06:17:50;1.10;99.90
16485;DHT22;8353;47.856;12.344;2023-02-28T06:20:22;1.10;99.90
16485;DHT22;8353;47.856;12.344;2023-02-28T06:22:53;1.10;99.90
16485;DHT22;8353;47.856;12.344;2023-02-28T06:25:26;1.30;99.90
16485;DHT22;8353;47.856;12.344;2023-02-28T06:27:57;1.30;99.90
16485;DHT22;8353;47.856;12.344;2023-02-28T06:30:28;1.40;99.90
16485;DHT22;8353;47.856;12.344;2023-02-28T06:33:00;1.40;99.90
16485;DHT22;8353;47.856;12.344;2023-02-28T06:35:33;1.50;99.90
16485;DHT22;8353;47.856;12.344;2023-02-28T06:38:04;2.00;99.90
16485;DHT22;8353;47.856;12.344;2023-02-28T06:40:35;2.60;99.90
16485;DHT22;8353;47.856;12.344;2023-02-28T06:43:06;2.60;99.90
16485;DHT22;8353;47.856;12.344;2023-02-28T06:45:37;2.70;99.90
16485;DHT22;8353;47.856;12.344;2023-02-28T06:48:10;2.80;99.90
16485;DHT22;8353;47.856;12.344;2023-02-28T06:50:41;3.10;99.90
16485;DHT22;8353;47.856;12.344;2023-02-28T06:53:12;3.40;99.90
16485;DHT22;8353;47.856;12.344;2023-02-28T06:55:45;3.70;99.90
16485;DHT22;8353;47.856;12.344;2023-02-28T06:58:15;3.80;99.90
16485;DHT22;8353;47.856;12.344;2023-02-28T07:00:51;4.10;99.90
16485;DHT22;8353;47.856;12.344;2023-02-28T07:03:21;4.40;99.90
16485;DHT22;8353;47.856;12.344;2023-02-28T07:05:52;4.70;99.90
16485;DHT22;8353;47.856;12.344;2023-02-28T07:08:22;4.70;99.90
16485;DHT22;8353;47.856;12.344;2023-02-28T07:10:55;4.30;99.90
16485;DHT22;8353;47.856;12.344;2023-02-28T07:13:26;3.60;99.90
16485;DHT22;8353;47.856;12.344;2023-02-28T07:15:58;3.30;99.90
16485;DHT22;8353;47.856;12.344;2023-02-28T07:18:29;3.20;99.90
16485;DHT22;8353;47.856;12.344;2023-02-28T07:21:01;3.10;99.90
16485;DHT22;8353;47.856;12.344;2023-02-28T07:23:32;3.00;99.90
16485;DHT22;8353;47.856;12.344;2023-02-28T07:26:04;2.80;99.90
16485;DHT22;8353;47.856;12.344;2023-02-28T07:28:34;2.60;99.90
16485;DHT22;8353;47.856;12.344;2023-02-28T07:31:06;2.60;99.90
16485;DHT22;8353;47.856;12.344;2023-02-28T07:33:37;2.40;99.90
16485;DHT22;8353;47.856;12.344;2023-02-28T07:36:13;2.40;99.90
16485;DHT22;8353;47.856;12.344;2023-02-28T07:38:46;2.60;99.90
16485;DHT22;8353;47.856;12.344;2023-02-28T07:41:20;2.60;99.90
16485;DHT22;8353;47.856;12.344;2023-02-28T07:43:53;2.50;99.90
16485;DHT22;8353;47.856;12.344;2023-02-28T07:46:23;2.80;99.90
16485;DHT22;8353;47.856;12.344;2023-02-28T07:48:53;2.80;99.90
16485;DHT22;8353;47.856;12.344;2023-02-28T07:51:28;2.90;99.90
16485;DHT22;8353;47.856;12.344;2023-02-28T07:53:58;3.00;99.90
16485;DHT22;8353;47.856;12.344;2023-02-28T07:56:30;3.00;99.90
16485;DHT22;8353;47.856;12.344;2023-02-28T07:59:00;3.10;99.90
16485;DHT22;8353;47.856;12.344;2023-02-28T08:01:31;2.90;99.90
16485;DHT22;8353;47.856;12.344;2023-02-28T08:04:01;2.80;99.90
16485;DHT22;8353;47.856;12.344;2023-02-28T08:06:32;2.70;99.90
16485;DHT22;8353;47.856;12.344;2023-02-28T08:09:02;2.80;99.90
16485;DHT22;8353;47.856;12.344;2023-02-28T08:11:35;2.90;99.90
16485;DHT22;8353;47.856;12.344;2023-02-28T08:14:05;2.90;99.90
16485;DHT22;8353;47.856;12.344;2023-02-28T08:16:36;3.00;99.90
16485;DHT22;8353;47.856;12.344;2023-02-28T08:19:07;3.00;99.90
16485;DHT22;8353;47.856;12.344;2023-02-28T08:21:38;3.00;99.90
16485;DHT22;8353;47.856;12.344;2023-02-28T08:24:09;3.10;99.90
16485;DHT22;8353;47.856;12.344;2023-02-28T08:26:40;3.10;99.90
16485;DHT22;8353;47.856;12.344;2023-02-28T08:29:11;3.00;99.90
16485;DHT22;8353;47.856;12.344;2023-02-28T08:31:42;3.00;99.90
16485;DHT22;8353;47.856;12.344;2023-02-28T08:34:14;2.90;99.90
16485;DHT22;8353;47.856;12.344;2023-02-28T08:36:45;2.70;99.90
16485;DHT22;8353;47.856;12.344;2023-02-28T08:39:16;2.80;99.90
16485;DHT22;8353;47.856;12.344;2023-02-28T08:41:48;3.00;99.90
16485;DHT22;8353;47.856;12.344;2023-02-28T08:44:19;3.40;99.90
16485;DHT22;8353;47.856;12.344;2023-02-28T08:46:49;3.30;99.90
16485;DHT22;8353;47.856;12.344;2023-02-28T08:49:19;3.60;99.90
16485;DHT22;8353;47.856;12.344;2023-02-28T08:51:50;3.70;99.90
16485;DHT22;8353;47.856;12.344;2023-02-28T08:54:21;3.70;99.90
16485;DHT22;8353;47.856;12.344;2023-02-28T08:56:53;3.80;99.90
16485;DHT22;8353;47.856;12.344;2023-02-28T08:59:23;3.60;99.90
16485;DHT22;8353;47.856;12.344;2023-02-28T09:01:53;3.70;99.90
16485;DHT22;8353;47.856;12.344;2023-02-28T09:04:24;3.40;99.90
16485;DHT22;8353;47.856;12.344;2023-02-28T09:06:55;3.20;99.90
16485;DHT22;8353;47.856;12.344;2023-02-28T09:09:25;3.10;99.90
16485;DHT22;8353;47.856;12.344;2023-02-28T09:11:58;3.10;99.90
16485;DHT22;8353;47.856;12.344;2023-02-28T09:14:28;3.00;99.90
16485;DHT22;8353;47.856;12.344;2023-02-28T09:16:59;2.90;99.90
16485;DHT22;8353;47.856;12.344;2023-02-28T09:19:30;3.00;99.90
16485;DHT22;8353;47.856;12.344;2023-02-28T09:22:00;3.20;99.90
16485;DHT22;8353;47.856;12.344;2023-02-28T09:24:31;3.20;99.90
16485;DHT22;8353;47.856;12.344;2023-02-28T09:27:03;3.20;99.90
16485;DHT22;8353;47.856;12.344;2023-02-28T09:29:34;3.10;99.90
16485;DHT22;8353;47.856;12.344;2023-02-28T09:32:05;3.00;99.90
16485;DHT22;8353;47.856;12.344;2023-02-28T09:34:36;3.00;99.90
16485;DHT22;8353;47.856;12.344;2023-02-28T09:37:07;3.00;99.90
16485;DHT22;8353;47.856;12.344;2023-02-28T09:39:38;3.10;99.90
16485;DHT22;8353;47.856;12.344;2023-02-28T09:42:18;3.10;99.90
16485;DHT22;8353;47.856;12.344;2023-02-28T09:44:51;3.20;99.90
16485;DHT22;8353;47.856;12.344;2023-02-28T09:47:27;3.30;99.90
16485;DHT22;8353;47.856;12.344;2023-02-28T09:50:11;3.10;99.90
16485;DHT22;8353;47.856;12.344;2023-02-28T09:52:45;3.20;99.90
16485;DHT22;8353;47.856;12.344;2023-02-28T09:55:22;3.30;99.90
16485;DHT22;8353;47.856;12.344;2023-02-28T09:57:58;3.50;99.90
16485;DHT22;8353;47.856;12.344;2023-02-28T10:00:33;3.50;99.90
16485;DHT22;8353;47.856;12.344;2023-02-28T10:03:11;3.20;99.90
16485;DHT22;8353;47.856;12.344;2023-02-28T10:05:51;3.20;99.90
16485;DHT22;8353;47.856;12.344;2023-02-28T10:08:25;3.60;99.90
16485;DHT22;8353;47.856;12.344;2023-02-28T10:10:58;3.70;99.90
16485;DHT22;8353;47.856;12.344;2023-02-28T10:13:36;3.70;99.90
16485;DHT22;8353;47.856;12.344;2023-02-28T10:16:11;4.00;99.90
16485;DHT22;8353;47.856;12.344;2023-02-28T10:18:46;4.10;99.90
16485;DHT22;8353;47.856;12.344;2023-02-28T10:21:21;4.10;99.90
16485;DHT22;8353;47.856;12.344;2023-02-28T10:24:02;4.10;99.90
16485;DHT22;8353;47.856;12.344;2023-02-28T10:26:33;4.00;99.90
16485;DHT22;8353;47.856;12.344;2023-02-28T10:29:07;4.00;99.90
16485;DHT22;8353;47.856;12.344;2023-02-28T10:31:38;4.20;99.90
16485;DHT22;8353;47.856;12.344;2023-02-28T10:34:12;4.20;99.90
16485;DHT22;8353;47.856;12.344;2023-02-28T10:36:44;4.10;99.90
16485;DHT22;8353;47.856;12.344;2023-02-28T10:39:38;3.90;99.90
16485;DHT22;8353;47.856;12.344;2023-02-28T10:42:24;3.90;99.90
16485;DHT22;8353;47.856;12.344;2023-02-28T10:45:11;3.90;99.90
16485;DHT22;8353;47.856;12.344;2023-02-28T10:47:51;4.00;99.90
16485;DHT22;8353;47.856;12.344;2023-02-28T10:50:35;4.00;99.90
16485;DHT22;8353;47.856;12.344;2023-02-28T10:53:25;4.00;99.90
16485;DHT22;8353;47.856;12.344;2023-02-28T10:56:01;4.00;99.90
16485;DHT22;8353;47.856;12.344;2023-02-28T10:58:50;4.00;99.90
16485;DHT22;8353;47.856;12.344;2023-02-28T11:01:25;4.10;99.90
16485;DHT22;8353;47.856;12.344;2023-02-28T11:04:17;4.10;99.90
16485;DHT22;8353;47.856;12.344;2023-02-28T11:06:51;4.10;99.90
16485;DHT22;8353;47.856;12.344;2023-02-28T11:09:28;4.10;99.90
16485;DHT22;8353;47.856;12.344;2023-02-28T11:12:00;4.20;99.90
16485;DHT22;8353;47.856;12.344;2023-02-28T11:14:32;4.10;99.90
16485;DHT22;8353;47.856;12.344;2023-02-28T11:17:15;4.30;99.90
16485;DHT22;8353;47.856;12.344;2023-02-28T11:19:51;4.30;99.90
16485;DHT22;8353;47.856;12.344;2023-02-28T11:22:25;4.40;99.90
16485;DHT22;8353;47.856;12.344;2023-02-28T11:25:01;4.40;99.90
16485;DHT22;8353;47.856;12.344;2023-02-28T11:27:49;4.40;99.90
16485;DHT22;8353;47.856;12.344;2023-02-28T11:30:32;4.40;99.90
16485;DHT22;8353;47.856;12.344;2023-02-28T11:33:22;4.50;99.90
16485;DHT22;8353;47.856;12.344;2023-02-28T11:35:55;4.50;99.90
16485;DHT22;8353;47.856;12.344;2023-02-28T11:38:29;4.40;99.90
16485;DHT22;8353;47.856;12.344;2023-02-28T11:41:12;4.30;99.90
16485;DHT22;8353;47.856;12.344;2023-02-28T11:44:03;4.30;99.90
16485;DHT22;8353;47.856;12.344;2023-02-28T11:46:40;4.40;99.90
16485;DHT22;8353;47.856;12.344;2023-02-28T11:49:25;4.40;99.90
16485;DHT22;8353;47.856;12.344;2023-02-28T11:52:10;4.30;99.90
16485;DHT22;8353;47.856;12.344;2023-02-28T11:54:59;4.20;99.90
16485;DHT22;8353;47.856;12.344;2023-02-28T11:57:57;4.50;99.90
16485;DHT22;8353;47.856;12.344;2023-02-28T12:00:49;4.70;99.90
16485;DHT22;8353;47.856;12.344;2023-02-28T12:03:34;4.70;99.90
16485;DHT22;8353;47.856;12.344;2023-02-28T12:06:18;4.60;99.90
16485;DHT22;8353;47.856;12.344;2023-02-28T12:09:04;4.60;99.90
16485;DHT22;8353;47.856;12.344;2023-02-28T12:11:47;4.80;99.90
16485;DHT22;8353;47.856;12.344;2023-02-28T12:14:59;4.80;99.90
16485;DHT22;8353;47.856;12.344;2023-02-28T12:17:46;4.80;99.90
16485;DHT22;8353;47.856;12.344;2023-02-28T12:20:27;5.00;99.90
16485;DHT22;8353;47.856;12.344;2023-02-28T12:23:17;4.90;99.90
16485;DHT22;8353;47.856;12.344;2023-02-28T12:26:02;4.80;99.90
16485;DHT22;8353;47.856;12.344;2023-02-28T12:28:42;4.80;99.90
16485;DHT22;8353;47.856;12.344;2023-02-28T12:31:18;5.10;99.90
16485;DHT22;8353;47.856;12.344;2023-02-28T12:33:52;4.90;99.90
16485;DHT22;8353;47.856;12.344;2023-02-28T12:36:24;5.00;99.90
16485;DHT22;8353;47.856;12.344;2023-02-28T12:39:00;5.20;99.90
16485;DHT22;8353;47.856;12.344;2023-02-28T12:41:36;5.40;99.90
16485;DHT22;8353;47.856;12.344;2023-02-28T12:44:12;5.50;99.90
16485;DHT22;8353;47.856;12.344;2023-02-28T12:46:46;5.50;99.90
16485;DHT22;8353;47.856;12.344;2023-02-28T12:49:20;5.70;99.90
16485;DHT22;8353;47.856;12.344;2023-02-28T12:51:52;5.80;99.90
16485;DHT22;8353;47.856;12.344;2023-02-28T12:54:28;5.90;99.90
16485;DHT22;8353;47.856;12.344;2023-02-28T12:57:06;6.00;99.90
16485;DHT22;8353;47.856;12.344;2023-02-28T12:59:42;6.10;99.90
16485;DHT22;8353;47.856;12.344;2023-02-28T13:06:13;6.30;99.90
16485;DHT22;8353;47.856;12.344;2023-02-28T13:09:04;6.20;99.90
16485;DHT22;8353;47.856;12.344;2023-02-28T13:11:41;6.50;99.90
16485;DHT22;8353;47.856;12.344;2023-02-28T13:14:20;6.30;99.90
16485;DHT22;8353;47.856;12.344;2023-02-28T13:17:01;6.20;99.90
16485;DHT22;8353;47.856;12.344;2023-02-28T13:19:34;6.30;99.90
16485;DHT22;8353;47.856;12.344;2023-02-28T13:22:09;6.20;99.90
16485;DHT22;8353;47.856;12.344;2023-02-28T13:24:49;6.30;99.90
16485;DHT22;8353;47.856;12.344;2023-02-28T13:27:31;6.40;99.90
16485;DHT22;8353;47.856;12.344;2023-02-28T13:33:25;6.30;99.90
16485;DHT22;8353;47.856;12.344;2023-02-28T13:36:08;6.20;99.90
16485;DHT22;8353;47.856;12.344;2023-02-28T13:38:40;6.10;99.90
16485;DHT22;8353;47.856;12.344;2023-02-28T13:44:21;6.20;99.90
16485;DHT22;8353;47.856;12.344;2023-02-28T13:47:19;6.30;99.90
16485;DHT22;8353;47.856;12.344;2023-02-28T13:49:51;6.30;99.90
16485;DHT22;8353;47.856;12.344;2023-02-28T13:52:24;6.20;99.90
16485;DHT22;8353;47.856;12.344;2023-02-28T13:55:19;6.10;99.90
16485;DHT22;8353;47.856;12.344;2023-02-28T13:58:07;6.10;99.90
16485;DHT22;8353;47.856;12.344;2023-02-28T14:01:00;6.30;99.90
16485;DHT22;8353;47.856;12.344;2023-02-28T14:03:45;6.30;99.90
16485;DHT22;8353;47.856;12.344;2023-02-28T14:06:26;6.50;99.90
16485;DHT22;8353;47.856;12.344;2023-02-28T14:09:00;6.50;99.90
16485;DHT22;8353;47.856;12.344;2023-02-28T14:11:34;6.20;99.90
16485;DHT22;8353;47.856;12.344;2023-02-28T14:14:07;6.20;99.90
16485;DHT22;8353;47.856;12.344;2023-02-28T14:16:44;6.30;99.90
16485;DHT22;8353;47.856;12.344;2023-02-28T14:19:19;6.50;99.90
16485;DHT22;8353;47.856;12.344;2023-02-28T14:22:02;6.40;99.90
16485;DHT22;8353;47.856;12.344;2023-02-28T14:25:05;6.40;99.90
16485;DHT22;8353;47.856;12.344;2023-02-28T14:27:48;6.50;99.90
16485;DHT22;8353;47.856;12.344;2023-02-28T14:30:56;6.60;99.90
16485;DHT22;8353;47.856;12.344;2023-02-28T14:33:47;6.60;99.90
16485;DHT22;8353;47.856;12.344;2023-02-28T14:36:32;6.40;99.90
16485;DHT22;8353;47.856;12.344;2023-02-28T14:39:06;6.20;99.90
16485;DHT22;8353;47.856;12.344;2023-02-28T14:41:39;6.20;99.90
16485;DHT22;8353;47.856;12.344;2023-02-28T14:44:16;6.20;99.90
16485;DHT22;8353;47.856;12.344;2023-02-28T14:46:49;6.10;99.90
16485;DHT22;8353;47.856;12.344;2023-02-28T14:49:25;6.10;99.90
16485;DHT22;8353;47.856;12.344;2023-02-28T14:52:06;6.30;99.90
16485;DHT22;8353;47.856;12.344;2023-02-28T14:54:39;6.50;99.90
16485;DHT22;8353;47.856;12.344;2023-02-28T14:57:21;6.40;99.90
16485;DHT22;8353;47.856;12.344;2023-02-28T15:00:00;6.20;99.90
16485;DHT22;8353;47.856;12.344;2023-02-28T15:02:34;6.10;99.90
16485;DHT22;8353;47.856;12.344;2023-02-28T15:05:24;6.00;99.90
16485;DHT22;8353;47.856;12.344;2023-02-28T15:08:04;6.00;99.90
16485;DHT22;8353;47.856;12.344;2023-02-28T15:10:35;6.10;99.90
16485;DHT22;8353;47.856;12.344;2023-02-28T15:13:09;6.00;99.90
16485;DHT22;8353;47.856;12.344;2023-02-28T15:15:48;6.00;99.90
16485;DHT22;8353;47.856;12.344;2023-02-28T15:18:27;6.10;99.90
16485;DHT22;8353;47.856;12.344;2023-02-28T15:21:03;6.20;99.90
16485;DHT22;8353;47.856;12.344;2023-02-28T15:23:36;6.40;99.90
16485;DHT22;8353;47.856;12.344;2023-02-28T15:26:09;6.40;99.90
16485;DHT22;8353;47.856;12.344;2023-02-28T15:28:41;6.00;99.90
16485;DHT22;8353;47.856;12.344;2023-02-28T15:31:27;5.70;99.90
16485;DHT22;8353;47.856;12.344;2023-02-28T15:34:03;5.50;99.90
16485;DHT22;8353;47.856;12.344;2023-02-28T15:36:36;5.10;99.90
16485;DHT22;8353;47.856;12.344;2023-02-28T15:39:19;5.20;99.90
16485;DHT22;8353;47.856;12.344;2023-02-28T15:41:50;5.20;99.90
16485;DHT22;8353;47.856;12.344;2023-02-28T15:44:26;5.10;99.90
16485;DHT22;8353;47.856;12.344;2023-02-28T15:47:01;5.10;99.90
16485;DHT22;8353;47.856;12.344;2023-02-28T15:49:39;5.30;99.90
16485;DHT22;8353;47.856;12.344;2023-02-28T15:52:14;5.60;99.90
16485;DHT22;8353;47.856;12.344;2023-02-28T15:54:47;5.70;99.90
16485;DHT22;8353;47.856;12.344;2023-02-28T15:57:20;5.80;99.90
16485;DHT22;8353;47.856;12.344;2023-02-28T15:59:54;5.80;99.90
16485;DHT22;8353;47.856;12.344;2023-02-28T16:02:30;6.00;99.90
16485;DHT22;8353;47.856;12.344;2023-02-28T16:05:23;6.10;99.90
16485;DHT22;8353;47.856;12.344;2023-02-28T16:08:11;6.10;99.90
16485;DHT22;8353;47.856;12.344;2023-02-28T16:10:43;6.00;99.90
16485;DHT22;8353;47.856;12.344;2023-02-28T16:13:14;6.00;99.90
16485;DHT22;8353;47.856;12.344;2023-02-28T16:15:44;6.00;99.90
16485;DHT22;8353;47.856;12.344;2023-02-28T16:18:15;6.00;99.90
16485;DHT22;8353;47.856;12.344;2023-02-28T16:20:45;5.80;99.90
16485;DHT22;8353;47.856;12.344;2023-02-28T16:23:17;5.80;99.90
16485;DHT22;8353;47.856;12.344;2023-02-28T16:25:48;5.80;99.90
16485;DHT22;8353;47.856;12.344;2023-02-28T16:28:21;5.90;99.90
16485;DHT22;8353;47.856;12.344;2023-02-28T16:30:53;5.80;99.90
16485;DHT22;8353;47.856;12.344;2023-02-28T16:33:24;5.80;99.90
16485;DHT22;8353;47.856;12.344;2023-02-28T16:35:55;5.90;99.90
16485;DHT22;8353;47.856;12.344;2023-02-28T16:38:27;5.80;99.90
16485;DHT22;8353;47.856;12.344;2023-02-28T16:40:59;5.60;99.90
16485;DHT22;8353;47.856;12.344;2023-02-28T16:43:30;5.50;99.90
16485;DHT22;8353;47.856;12.344;2023-02-28T16:46:00;5.50;99.90
16485;DHT22;8353;47.856;12.344;2023-02-28T16:48:32;5.50;99.90
16485;DHT22;8353;47.856;12.344;2023-02-28T16:51:03;5.60;99.90
16485;DHT22;8353;47.856;12.344;2023-02-28T16:53:34;5.60;99.90